Flight Information

DEPARTURE
LAS VEGAS, NV
Elevation:
2491
Runways:
17R/35L - 6501x100 - ASPH-E
17L/35R - 5001x75 - ASPH-E
ATIS:
120.775 702-614-4537
Ground:
127.8
Tower:
125.1
DESTINATION
,
Elevation:
TPA:
1000 (est.)


6606.1 NM75° True-14° Var60° HDG

Flight Plan:
(click to file on line)

1. Type
2. Aircraft Identification
3. Aircraft Type / Special Equipment
4. True Airspeed
kts
5. Departure Airport
(ICAO code)
6. Arriving Airport
(ICAO code)
7. Cruising Altitude
ft
8. Alternate Airport
(ICAO code)
9. Route of Flight
10. Remarks


00:00:00 Departure ATIS: Destination ATIS:

Clearance Limit:
Route:
Altitude: Expect in minutes
Frequency:
Transponder: (7500 Hijack / 7600 Lost Comms / 7700 Emergency)


KLAS 261256Z 19005KT 10SM FEW130 28/00 A2999 RMK AO2 SLP124 T02780000
Time: 2022-06-26T12:56:00Z
1656249899
Winds: 190 @ 5 kts
Visibility: 10.0 sm
Clouds (AGL): FEW 13000
Temperature: 27.8 C
Dew Point: 0.0 C
Pressure: 29.991142 in Hgbr


Notes:

Data extracted from FAA Digital Chart Supplement. Effective: 0901Z Thursday, 27 JAN 2022 to 0900z Thursday, 24 MAR 2022
Current ATIS data is provided courtisy of PilotEdge.